Time;durP1;ratioP1;P1;durP2;ratioP2;P2;SDS_P1;SDS_P2;PMS_P1;PMS_P2;Temp;Humidity;BMP_temperature;BMP_pressure;BME280_temperature;BME280_humidity;BME280_pressure;Samples;Min_cycle;Max_cycle;Signal;HPM_P1;HPM_P2
2022/05/12 00:02:18;;;;;;;10.50;9.48;;;;;;;29.23;58.14;100847.75;5040767;28;69446;-36
2022/05/12 00:04:48;;;;;;;12.67;10.53;;;;;;;29.29;61.42;100833.41;5041362;28;66378;-36
2022/05/12 00:07:19;;;;;;;19.00;12.35;;;;;;;29.60;62.95;100848.91;5042479;28;70041;-36
2022/05/12 00:09:49;;;;;;;16.88;13.25;;;;;;;29.67;65.00;100843.53;5030700;28;66219;-35
2022/05/12 00:12:19;;;;;;;19.58;13.02;;;;;;;29.85;65.48;100840.13;5023691;28;70399;-35
2022/05/12 00:14:50;;;;;;;20.92;13.38;;;;;;;30.02;66.75;100838.59;5033213;28;65325;-36
2022/05/12 00:17:20;;;;;;;15.88;12.00;;;;;;;30.13;68.85;100831.66;5040505;28;70535;-37
2022/05/12 00:19:50;;;;;;;18.05;11.80;;;;;;;30.22;68.59;100841.22;5039541;28;64620;-38
2022/05/12 00:22:20;;;;;;;17.77;11.93;;;;;;;30.19;70.89;100832.69;5040779;28;70132;-33
2022/05/12 00:24:50;;;;;;;14.05;11.27;;;;;;;30.31;69.45;100849.91;5040005;28;66546;-36
2022/05/12 00:27:21;;;;;;;12.10;10.80;;;;;;;30.43;70.75;100869.00;5038512;28;69899;-38
2022/05/12 00:29:51;;;;;;;13.48;10.48;;;;;;;30.36;70.49;100858.19;5022838;28;65247;-37
2022/05/12 00:32:22;;;;;;;24.55;11.13;;;;;;;30.53;68.75;100865.81;5019727;28;69485;-38
2022/05/12 00:34:52;;;;;;;20.40;10.60;;;;;;;30.71;69.38;100882.97;5020595;28;65964;-37
2022/05/12 00:37:22;;;;;;;17.00;10.95;;;;;;;30.54;69.49;100852.06;5032402;28;70203;-38
2022/05/12 00:39:52;;;;;;;20.38;9.93;;;;;;;30.67;69.63;100868.22;5040785;28;66492;-37
2022/05/12 00:42:22;;;;;;;18.80;10.25;;;;;;;30.85;69.59;100899.16;5041297;28;70016;-38
2022/05/12 00:44:53;;;;;;;13.05;9.57;;;;;;;30.88;70.28;100896.00;5041321;28;65353;-37
2022/05/12 00:47:23;;;;;;;10.50;8.95;;;;;;;30.96;66.73;100894.91;5037419;28;70360;-38
2022/05/12 00:49:54;;;;;;;12.02;7.95;;;;;;;30.50;65.21;100799.41;5023081;28;65820;-38
2022/05/12 00:52:29;;;;;;;9.35;7.88;;;;;;;31.16;64.96;100904.53;5039431;28;69546;-37
2022/05/12 00:55:07;;;;;;;12.60;8.10;;;;;;;30.69;65.78;100811.94;5039425;28;66199;-38
2022/05/12 00:57:59;;;;;;;11.15;8.05;;;;;;;31.24;64.93;100899.88;5038737;28;69895;-37
2022/05/12 01:00:29;;;;;;;8.75;7.93;;;;;;;31.36;64.30;100907.06;5038568;28;66676;-37
2022/05/12 01:03:04;;;;;;;8.30;7.63;;;;;;;31.10;64.30;100853.94;5040979;28;70522;-38
2022/05/12 01:05:35;;;;;;;8.25;7.38;;;;;;;31.41;63.53;100897.47;5039768;28;65838;-36
2022/05/12 01:08:10;;;;;;;8.45;7.55;;;;;;;31.14;63.72;100849.72;5041066;28;69935;-36
2022/05/12 01:10:44;;;;;;;8.98;7.55;;;;;;;31.55;63.04;100905.22;5040323;28;66658;-37
2022/05/12 01:13:26;;;;;;;7.78;7.18;;;;;;;31.49;63.20;100892.56;5040348;28;70462;-38
2022/05/12 01:16:00;;;;;;;7.67;7.07;;;;;;;31.38;63.00;100871.63;5041492;28;66024;-36
2022/05/12 01:18:32;;;;;;;8.45;7.47;;;;;;;31.69;62.49;100915.94;5039619;28;70392;-38
2022/05/12 01:21:03;;;;;;;9.27;7.88;;;;;;;31.71;62.93;100911.94;5040893;28;66429;-38
2022/05/12 01:23:39;;;;;;;7.18;6.57;;;;;;;31.41;61.81;100852.22;5040468;28;70200;-38
2022/05/12 01:26:15;;;;;;;6.35;6.00;;;;;;;31.43;62.16;100860.94;5038188;28;66121;-38
2022/05/12 01:28:45;;;;;;;6.90;6.40;;;;;;;31.79;62.14;100911.66;5041201;28;70403;-38
2022/05/12 01:31:17;;;;;;;6.85;6.35;;;;;;;31.82;61.83;100918.50;5038991;28;65070;-38
2022/05/12 01:33:48;;;;;;;6.45;5.95;;;;;;;31.85;61.47;100909.09;5041027;28;70350;-37
2022/05/12 01:36:20;;;;;;;6.57;5.97;;;;;;;31.88;61.19;100914.06;5040263;28;66124;-40
2022/05/12 01:38:51;;;;;;;7.22;6.70;;;;;;;31.58;60.99;100860.56;5040119;28;70001;-37
2022/05/12 01:41:22;;;;;;;11.52;6.82;;;;;;;31.90;61.04;100907.38;5040947;28;64874;-36
2022/05/12 01:43:53;;;;;;;7.05;6.55;;;;;;;31.95;61.03;100909.41;5040828;28;69603;-39
2022/05/12 01:46:23;;;;;;;7.10;6.43;;;;;;;31.95;60.85;100912.94;5040039;28;66836;-38
2022/05/12 01:48:56;;;;;;;6.63;6.03;;;;;;;32.00;60.45;100906.84;5040318;28;70497;-37
2022/05/12 01:51:55;;;;;;;7.20;6.18;;;;;;;31.99;60.52;100911.44;5038125;28;66347;-37
2022/05/12 01:54:27;;;;;;;6.88;6.28;;;;;;;31.93;60.81;100887.94;5034840;28;69457;-38
2022/05/12 01:56:57;;;;;;;6.75;6.25;;;;;;;31.96;60.39;100890.19;5027409;28;66613;-38
2022/05/12 01:59:28;;;;;;;6.88;6.32;;;;;;;32.05;60.60;100898.84;5034215;28;69732;-37
2022/05/12 02:01:58;;;;;;;7.40;6.68;;;;;;;32.05;60.27;100888.81;5030970;28;66316;-40
2022/05/12 02:04:28;;;;;;;6.68;6.22;;;;;;;32.11;60.14;100880.84;5030457;28;70224;-37
2022/05/12 02:06:58;;;;;;;8.95;6.65;;;;;;;32.09;59.96;100867.47;5033473;28;66003;-38
2022/05/12 02:09:29;;;;;;;5.88;5.35;;;;;;;32.15;59.88;100871.16;5032353;28;69827;-36
2022/05/12 02:11:59;;;;;;;6.07;5.68;;;;;;;32.13;59.69;100862.44;5036310;28;65739;-36
2022/05/12 02:14:29;;;;;;;10.15;6.22;;;;;;;32.13;59.57;100863.28;5039600;28;69286;-37
2022/05/12 02:16:59;;;;;;;8.05;6.65;;;;;;;32.20;59.71;100868.59;5038375;28;66275;-37
2022/05/12 02:19:29;;;;;;;6.68;6.18;;;;;;;32.19;59.65;100862.34;5038123;28;70176;-37
2022/05/12 02:22:02;;;;;;;6.82;6.32;;;;;;;32.12;59.59;100839.06;5039047;28;66158;-37
2022/05/12 02:24:32;;;;;;;6.70;6.10;;;;;;;32.22;59.41;100848.31;5039809;28;69897;-36
2022/05/12 02:27:03;;;;;;;9.65;6.57;;;;;;;32.24;59.33;100851.63;5037609;28;65786;-36
2022/05/12 02:29:33;;;;;;;7.38;6.68;;;;;;;32.29;59.50;100845.53;5039051;28;69647;-37
2022/05/12 02:32:03;;;;;;;6.80;6.30;;;;;;;32.30;59.18;100840.91;5055112;28;66558;-36
2022/05/12 02:34:34;;;;;;;6.47;6.03;;;;;;;32.30;58.94;100833.59;5038222;28;70217;-38
2022/05/12 02:37:05;;;;;;;7.35;6.65;;;;;;;32.31;58.94;100829.00;5040289;28;65778;-37
2022/05/12 02:39:40;;;;;;;6.90;6.40;;;;;;;32.36;58.91;100835.38;5043313;28;69608;-38
2022/05/12 02:42:10;;;;;;;7.35;6.10;;;;;;;32.37;58.65;100833.47;5043623;28;65806;-37
2022/05/12 02:44:41;;;;;;;6.93;6.43;;;;;;;32.38;58.65;100819.69;5042399;28;70012;-38
2022/05/12 02:47:11;;;;;;;6.80;6.30;;;;;;;32.36;58.90;100813.66;5041718;28;66728;-37
2022/05/12 02:49:42;;;;;;;7.35;6.75;;;;;;;32.43;58.73;100830.69;5043455;28;70412;-37
2022/05/12 02:52:12;;;;;;;6.90;6.40;;;;;;;32.45;58.82;100828.53;5043171;28;65544;-36
2022/05/12 02:54:42;;;;;;;6.60;6.10;;;;;;;32.42;58.73;100820.03;5041976;28;69442;-37
2022/05/12 02:57:12;;;;;;;11.07;6.60;;;;;;;32.48;58.36;100824.56;5042714;28;66430;-39
2022/05/12 02:59:43;;;;;;;7.30;6.60;;;;;;;32.41;58.43;100811.09;5043158;28;71750;-37
2022/05/12 03:02:13;;;;;;;6.47;5.82;;;;;;;32.53;58.04;100821.16;5042066;28;66482;-38
2022/05/12 03:04:44;;;;;;;6.65;6.25;;;;;;;32.54;58.35;100814.66;5042065;28;70356;-36
2022/05/12 03:07:15;;;;;;;6.65;6.15;;;;;;;32.57;58.00;100814.19;5041612;28;65987;-37
2022/05/12 03:09:45;;;;;;;7.72;6.43;;;;;;;32.59;58.05;100806.66;5041966;28;70065;-37
2022/05/12 03:12:15;;;;;;;5.97;5.47;;;;;;;32.62;57.96;100819.75;5042065;28;66330;-36
2022/05/12 03:14:45;;;;;;;5.88;5.38;;;;;;;32.63;57.97;100813.28;5043164;28;69299;-39
2022/05/12 03:17:15;;;;;;;9.05;6.03;;;;;;;32.66;58.03;100801.94;5040710;28;66536;-37
2022/05/12 03:19:45;;;;;;;6.72;6.22;;;;;;;32.69;57.62;100798.75;5043388;28;69951;-38
2022/05/12 03:22:15;;;;;;;6.70;6.20;;;;;;;32.73;57.67;100797.22;5042786;28;66303;-37
2022/05/12 03:24:45;;;;;;;6.55;6.00;;;;;;;32.71;57.84;100793.94;5041814;28;70218;-38
2022/05/12 03:27:16;;;;;;;6.43;6.03;;;;;;;32.79;57.71;100803.59;5043050;28;67446;-37
2022/05/12 03:29:47;;;;;;;7.25;5.97;;;;;;;32.80;57.61;100797.94;5043321;28;70393;-37
2022/05/12 03:32:17;;;;;;;6.68;5.50;;;;;;;32.83;57.46;100792.03;5042011;28;65575;-37
2022/05/12 03:34:47;;;;;;;6.40;5.80;;;;;;;32.80;57.12;100781.66;5042915;28;70483;-38
2022/05/12 03:37:18;;;;;;;6.10;5.60;;;;;;;32.92;57.24;100785.19;5042637;28;65878;-38
2022/05/12 03:39:48;;;;;;;5.60;5.23;;;;;;;32.92;57.22;100787.91;5024195;28;71620;-36
2022/05/12 03:42:19;;;;;;;6.15;5.72;;;;;;;32.97;56.84;100780.94;5043275;28;66291;-38
2022/05/12 03:44:50;;;;;;;5.80;5.32;;;;;;;32.91;57.11;100766.41;5024210;28;69770;-35
2022/05/12 03:47:35;;;;;;;6.80;6.30;;;;;;;33.03;56.76;100790.88;5041422;28;66958;-37
2022/05/12 03:50:15;;;;;;;5.85;5.45;;;;;;;33.02;56.39;100762.06;5042123;28;70411;-37
2022/05/12 03:52:48;;;;;;;8.25;5.35;;;;;;;32.88;57.07;100751.41;5040909;28;65863;-37
2022/05/12 03:55:22;;;;;;;7.00;6.07;;;;;;;32.69;56.59;100720.00;5042229;28;69937;-38
2022/05/12 03:57:55;;;;;;;6.35;5.85;;;;;;;33.12;56.57;100773.16;5040628;28;66640;-36
2022/05/12 04:00:29;;;;;;;6.07;5.57;;;;;;;33.04;56.33;100749.03;5024540;28;69878;-37
2022/05/12 04:02:59;;;;;;;5.47;4.57;;;;;;;33.16;56.66;100766.19;5042229;28;65448;-36
2022/05/12 04:05:31;;;;;;;5.97;5.18;;;;;;;33.17;56.44;100759.66;5042108;28;70341;-38
2022/05/12 04:08:01;;;;;;;5.70;5.18;;;;;;;33.07;56.37;100743.13;5042100;28;66728;-38
2022/05/12 04:10:32;;;;;;;5.90;5.40;;;;;;;33.22;56.44;100748.91;5041700;28;70121;-38
2022/05/12 04:13:02;;;;;;;7.70;5.40;;;;;;;33.23;56.33;100750.56;5041955;28;65644;-38
2022/05/12 04:15:33;;;;;;;5.00;4.68;;;;;;;33.27;56.06;100751.75;5042370;28;70049;-37
2022/05/12 04:18:05;;;;;;;5.30;4.95;;;;;;;32.86;56.15;100677.47;5041517;28;65535;-37
2022/05/12 04:20:37;;;;;;;5.55;5.25;;;;;;;32.87;56.06;100684.53;5024522;28;69874;-38
2022/05/12 04:23:08;;;;;;;5.63;5.23;;;;;;;33.30;56.05;100742.28;5042087;28;65564;-37
2022/05/12 04:25:38;;;;;;;5.53;5.13;;;;;;;33.31;56.03;100744.75;5041439;28;70441;-37
2022/05/12 04:28:08;;;;;;;6.10;5.63;;;;;;;33.01;56.02;100678.88;5023858;28;66472;-37
2022/05/12 04:30:38;;;;;;;5.38;5.00;;;;;;;33.27;55.85;100721.84;5042134;28;69651;-38
2022/05/12 04:35:57;;;;;;;6.65;5.07;;;;;;;33.41;56.27;100718.84;5042175;28;69585;-38
2022/05/12 04:38:27;;;;;;;5.35;4.85;;;;;;;33.41;55.87;100714.22;5038056;28;64646;-37
2022/05/12 04:40:58;;;;;;;5.95;5.30;;;;;;;33.46;55.80;100708.06;5041617;28;70092;-39
2022/05/12 04:43:28;;;;;;;5.90;5.32;;;;;;;33.47;55.99;100712.44;5023631;28;66096;-37
2022/05/12 04:45:58;;;;;;;5.15;4.82;;;;;;;33.35;56.02;100699.72;5040530;28;70484;-38
2022/05/12 04:48:31;;;;;;;5.40;4.90;;;;;;;33.52;55.85;100712.53;5040719;28;66671;-37
2022/05/12 04:51:03;;;;;;;5.32;4.90;;;;;;;33.55;55.86;100706.66;5040742;28;70360;-38
2022/05/12 04:53:33;;;;;;;9.82;5.28;;;;;;;33.50;55.82;100680.13;5039822;28;66569;-38
2022/05/12 04:56:04;;;;;;;5.53;5.05;;;;;;;33.58;55.78;100692.56;5039880;28;70162;-36
2022/05/12 04:58:34;;;;;;;5.93;5.43;;;;;;;33.61;55.66;100685.81;5041058;28;66058;-38
2022/05/12 05:01:05;;;;;;;5.57;5.07;;;;;;;33.60;55.63;100671.38;5039273;28;70471;-38
2022/05/12 05:03:35;;;;;;;5.82;5.20;;;;;;;33.66;55.54;100669.59;5040654;28;66230;-37
2022/05/12 05:06:05;;;;;;;5.47;4.85;;;;;;;33.67;55.12;100665.78;5041048;28;70235;-37
2022/05/12 05:08:36;;;;;;;9.38;5.30;;;;;;;33.70;55.40;100660.69;5041325;28;66521;-36
2022/05/12 05:11:07;;;;;;;5.10;4.60;;;;;;;33.69;55.58;100660.94;5040986;28;70358;-37
2022/05/12 05:13:37;;;;;;;5.18;4.78;;;;;;;33.67;55.21;100647.56;5039969;28;66344;-39
2022/05/12 05:16:07;;;;;;;6.53;4.75;;;;;;;33.76;55.15;100659.69;5039208;28;70339;-38
2022/05/12 05:18:38;;;;;;;5.90;5.30;;;;;;;33.78;55.20;100652.13;5041190;28;66455;-38
2022/05/12 05:21:10;;;;;;;8.00;4.93;;;;;;;33.62;55.39;100625.72;5040556;28;70408;-37
2022/05/12 05:23:40;;;;;;;5.28;4.75;;;;;;;33.82;54.83;100655.16;5040483;28;66078;-38
2022/05/12 05:26:10;;;;;;;4.78;4.47;;;;;;;33.79;54.95;100642.06;5040938;28;70424;-37
2022/05/12 05:28:40;;;;;;;5.20;4.80;;;;;;;33.92;54.83;100640.91;5055371;28;66154;-35
2022/05/12 05:31:10;;;;;;;5.13;4.68;;;;;;;33.86;54.72;100631.03;5040920;28;69868;-36
2022/05/12 05:33:41;;;;;;;5.32;4.82;;;;;;;33.86;54.66;100620.97;5039530;28;65129;-37
2022/05/12 05:36:11;;;;;;;5.32;4.82;;;;;;;33.96;54.83;100628.44;5039530;28;70348;-36
2022/05/12 05:38:41;;;;;;;5.43;4.43;;;;;;;33.99;54.85;100630.69;5040816;28;65456;-37
2022/05/12 05:41:12;;;;;;;5.85;5.30;;;;;;;34.00;54.83;100616.03;5040528;28;70453;-38
2022/05/12 05:43:44;;;;;;;4.55;4.20;;;;;;;34.00;54.82;100610.56;5039588;28;65720;-38
2022/05/12 05:46:16;;;;;;;5.00;4.63;;;;;;;33.95;54.87;100607.75;5040181;28;69845;-37
2022/05/12 05:48:50;;;;;;;;;;;;;;;33.72;55.47;100608.75;5028813;28;65485;-39
2022/05/12 05:54:08;;;;;;;4.55;4.15;;;;;;;34.07;54.63;100608.53;5030912;28;65483;-37
2022/05/12 05:56:38;;;;;;;4.85;4.55;;;;;;;34.07;54.78;100594.91;5022712;28;69149;-39
2022/05/12 05:59:09;;;;;;;4.95;4.55;;;;;;;34.14;54.27;100601.03;5035652;28;66287;-37
2022/05/12 06:01:39;;;;;;;4.03;3.72;;;;;;;34.17;54.28;100588.81;5040530;28;70403;-38
2022/05/12 06:04:09;;;;;;;4.85;3.65;;;;;;;34.22;54.21;100581.53;5038042;28;65540;-37
2022/05/12 06:06:40;;;;;;;4.70;4.28;;;;;;;34.25;54.26;100580.22;5040146;28;69172;-36
2022/05/12 06:09:12;;;;;;;4.70;3.75;;;;;;;34.24;53.99;100573.09;5039394;28;66496;-37
2022/05/12 06:11:44;;;;;;;3.67;3.47;;;;;;;34.20;54.12;100556.47;5038480;28;69150;-38
2022/05/12 06:14:14;;;;;;;4.55;4.13;;;;;;;34.33;54.27;100570.81;5039397;28;66239;-38
2022/05/12 06:16:45;;;;;;;3.55;3.35;;;;;;;34.25;53.98;100553.81;5040320;28;70446;-38
2022/05/12 06:19:15;;;;;;;4.20;3.72;;;;;;;34.39;53.89;100564.34;5039630;28;66898;-38
2022/05/12 06:21:45;;;;;;;4.20;3.80;;;;;;;34.43;54.23;100565.47;5039901;28;70128;-38
2022/05/12 06:24:15;;;;;;;5.05;3.67;;;;;;;34.46;53.78;100549.47;5039098;28;65734;-37
2022/05/12 06:26:45;;;;;;;3.65;3.35;;;;;;;34.49;53.69;100542.66;5039358;28;69648;-37
2022/05/12 06:29:16;;;;;;;3.78;3.40;;;;;;;34.49;53.98;100537.22;5039905;28;66770;-36
2022/05/12 06:31:47;;;;;;;5.18;3.85;;;;;;;34.53;53.78;100529.41;5038703;28;70388;-36
2022/05/12 06:34:18;;;;;;;4.00;3.60;;;;;;;34.48;53.95;100511.09;5038730;28;64854;-37
2022/05/12 06:36:51;;;;;;;3.40;3.13;;;;;;;34.53;53.38;100511.16;5039508;28;69601;-38
2022/05/12 06:39:21;;;;;;;4.65;3.45;;;;;;;34.56;53.73;100513.38;5039025;28;66049;-37
2022/05/12 06:41:52;;;;;;;6.43;3.85;;;;;;;34.59;53.72;100510.16;5039760;28;69974;-36
2022/05/12 06:44:29;;;;;;;3.20;3.00;;;;;;;34.48;53.44;100484.66;5037985;28;66631;-37
2022/05/12 06:47:00;;;;;;;3.97;3.67;;;;;;;34.52;53.65;100487.72;5039018;28;69217;-37
2022/05/12 06:49:31;;;;;;;4.45;3.60;;;;;;;34.49;53.34;100482.75;5040036;28;65040;-38
2022/05/12 06:52:03;;;;;;;4.40;3.95;;;;;;;34.67;53.50;100500.72;5039468;28;69378;-37
2022/05/12 06:54:39;;;;;;;4.03;3.72;;;;;;;34.24;52.98;100421.50;5039831;28;66088;-37
2022/05/12 06:57:10;;;;;;;4.18;3.80;;;;;;;34.69;53.62;100504.84;5039782;28;69898;-37
2022/05/12 06:59:41;;;;;;;3.83;3.50;;;;;;;34.61;53.21;100486.22;5038714;28;66246;-37
2022/05/12 07:02:11;;;;;;;5.05;3.88;;;;;;;34.72;53.47;100483.63;5039575;28;70418;-37
2022/05/12 07:04:41;;;;;;;4.22;3.53;;;;;;;34.72;53.33;100480.88;5039657;28;66245;-36
2022/05/12 07:07:13;;;;;;;3.83;3.58;;;;;;;34.74;53.38;100456.91;5038309;28;69902;-37
2022/05/12 07:09:43;;;;;;;3.50;3.20;;;;;;;34.74;53.15;100454.19;5040227;28;65714;-37
2022/05/12 07:12:17;;;;;;;4.93;4.03;;;;;;;34.76;52.99;100450.13;5039979;28;70492;-37
2022/05/12 07:14:47;;;;;;;3.13;2.92;;;;;;;34.77;52.96;100440.06;5038137;28;66372;-37
2022/05/12 07:17:19;;;;;;;4.20;3.78;;;;;;;34.78;53.33;100433.53;5039471;28;69416;-38
2022/05/12 07:19:50;;;;;;;9.10;3.55;;;;;;;34.81;52.92;100441.19;5038158;28;66348;-38
2022/05/12 07:27:57;;;;;;;3.67;3.38;;;;;;;34.81;53.31;100424.84;5023301;28;69793;-36
2022/05/12 07:31:00;;;;;;;3.45;3.20;;;;;;;34.86;53.33;100423.00;5022865;28;66473;-36
2022/05/12 07:33:17;;;;;;;3.67;3.35;;;;;;;34.80;53.26;100412.28;5022007;28;70767;-36
2022/05/12 07:35:48;;;;;;;3.38;3.17;;;;;;;34.91;52.81;100433.13;5022559;28;65600;-37
2022/05/12 07:38:18;;;;;;;4.68;3.50;;;;;;;34.93;52.86;100433.66;5020506;28;69490;-38
2022/05/12 07:40:48;;;;;;;4.00;3.70;;;;;;;34.87;53.01;100424.63;5022560;28;65781;-36
2022/05/12 07:43:18;;;;;;;4.05;3.70;;;;;;;34.96;53.07;100421.44;5022195;28;70334;-37
2022/05/12 07:45:49;;;;;;;4.00;3.70;;;;;;;34.92;52.53;100410.22;5021530;28;66388;-37
2022/05/12 07:48:20;;;;;;;4.20;3.00;;;;;;;34.95;52.68;100414.34;5022575;28;70181;-38
2022/05/12 07:50:50;;;;;;;3.85;3.03;;;;;;;34.86;52.39;100394.94;5038219;28;66394;-37
2022/05/12 07:53:20;;;;;;;3.05;2.75;;;;;;;34.91;52.91;100384.88;5021359;28;70741;-37
2022/05/12 07:55:50;;;;;;;4.60;2.55;;;;;;;35.00;52.52;100393.41;5022483;28;66265;-37
2022/05/12 07:58:20;;;;;;;4.40;3.17;;;;;;;34.97;52.38;100385.75;5021663;28;70148;-37
2022/05/12 08:00:53;;;;;;;3.08;2.80;;;;;;;35.02;52.35;100383.06;5021703;28;65901;-37
2022/05/12 08:03:25;;;;;;;3.30;3.10;;;;;;;35.04;52.27;100386.34;5022151;28;70111;-38
2022/05/12 08:05:59;;;;;;;3.05;2.80;;;;;;;35.00;52.79;100366.16;5021077;28;65686;-37
2022/05/12 08:08:30;;;;;;;7.80;2.85;;;;;;;35.02;52.27;100371.31;5022180;28;69628;-37
2022/05/12 08:11:00;;;;;;;4.65;3.10;;;;;;;35.02;52.26;100374.91;5021602;28;66294;-39
2022/05/12 08:13:31;;;;;;;2.90;2.70;;;;;;;35.03;52.62;100384.72;5020770;28;71668;-39
2022/05/12 08:16:04;;;;;;;3.70;3.00;;;;;;;34.99;52.34;100369.94;5022152;28;65405;-38
2022/05/12 08:18:38;;;;;;;2.97;2.78;;;;;;;35.04;52.42;100369.16;5021751;28;70936;-38
2022/05/12 08:21:08;;;;;;;3.63;2.85;;;;;;;35.05;52.54;100376.25;5023235;28;66739;-37
2022/05/12 08:23:38;;;;;;;2.97;2.67;;;;;;;35.01;52.44;100362.34;5029583;28;69606;-38
2022/05/12 08:26:09;;;;;;;3.05;2.85;;;;;;;35.00;52.36;100359.88;5042026;28;66160;-37
2022/05/12 08:28:40;;;;;;;;;;;;;;;34.77;53.38;100363.75;5041141;28;70641;-37
2022/05/12 08:31:11;;;;;;;4.43;2.72;;;;;;;35.04;52.40;100358.25;5042030;28;66665;-38
2022/05/12 08:33:41;;;;;;;3.33;2.90;;;;;;;35.01;52.42;100343.25;5041602;28;70141;-37
2022/05/12 08:36:11;;;;;;;2.97;2.58;;;;;;;35.07;52.09;100352.31;5055840;28;65547;-37
2022/05/12 08:38:44;;;;;;;6.15;2.92;;;;;;;35.07;52.39;100352.31;5041764;28;70039;-37
2022/05/12 08:41:42;;;;;;;4.13;2.92;;;;;;;34.90;52.23;100341.53;5041192;28;66419;-36
2022/05/12 08:44:19;;;;;;;3.38;2.50;;;;;;;35.07;52.05;100358.59;5041347;28;70558;-37
2022/05/12 08:46:56;;;;;;;3.25;2.95;;;;;;;34.94;52.13;100334.50;5040528;28;66690;-37
2022/05/12 08:49:58;;;;;;;3.28;3.08;;;;;;;35.00;52.54;100357.97;5041416;28;70577;-37
2022/05/12 08:53:09;;;;;;;3.03;2.77;;;;;;;34.92;52.70;100353.81;5040297;28;66328;-37
2022/05/12 08:55:48;;;;;;;5.10;2.43;;;;;;;35.09;51.92;100350.97;4979918;28;70368;-37
2022/05/12 08:58:30;;;;;;;4.25;3.08;;;;;;;34.83;52.16;100321.88;5037724;28;66064;-36
2022/05/12 09:01:19;;;;;;;3.83;2.88;;;;;;;35.12;51.94;100364.09;5040434;28;69969;-36
2022/05/12 09:04:10;;;;;;;3.05;2.75;;;;;;;35.13;51.88;100365.75;5040746;28;66520;-37
2022/05/12 09:07:07;;;;;;;2.80;2.60;;;;;;;34.75;52.48;100303.28;5041732;28;70315;-36
2022/05/12 09:10:12;;;;;;;3.95;2.80;;;;;;;35.08;52.24;100349.34;5041928;28;66158;-36
2022/05/12 09:13:01;;;;;;;2.88;2.67;;;;;;;35.06;52.53;100354.22;5039936;28;70413;-38
2022/05/12 09:15:37;;;;;;;2.92;2.38;;;;;;;34.68;52.48;100290.69;5039823;28;66038;-37
2022/05/12 09:18:22;;;;;;;3.38;3.08;;;;;;;35.07;52.16;100369.50;5039281;28;70577;-37
2022/05/12 09:20:52;;;;;;;3.65;2.63;;;;;;;35.01;52.29;100343.25;5039843;28;66110;-38
2022/05/12 09:23:23;;;;;;;2.93;2.73;;;;;;;35.07;52.68;100358.59;5041088;28;70113;-38
2022/05/12 09:25:53;;;;;;;2.92;2.45;;;;;;;35.08;52.63;100360.25;5041008;28;65358;-37
2022/05/12 09:28:27;;;;;;;2.60;2.40;;;;;;;35.19;52.01;100379.38;5039736;28;70257;-37
2022/05/12 09:31:16;;;;;;;3.03;2.83;;;;;;;34.58;52.36;100285.16;5040323;28;65471;-38
2022/05/12 09:33:54;;;;;;;2.92;2.72;;;;;;;34.73;51.93;100325.31;5040289;28;69793;-36
2022/05/12 09:36:24;;;;;;;3.33;3.03;;;;;;;35.19;52.18;100406.66;5041230;28;65734;-37
2022/05/12 09:38:56;;;;;;;4.80;2.75;;;;;;;35.20;52.58;100403.69;5040447;28;70598;-37
2022/05/12 09:41:43;;;;;;;6.95;2.83;;;;;;;35.18;52.05;100396.84;5038881;28;65791;-38
2022/05/12 09:44:24;;;;;;;3.58;2.95;;;;;;;35.19;52.47;100407.50;5040596;28;70237;-37
2022/05/12 09:47:03;;;;;;;2.80;2.60;;;;;;;35.18;52.32;100407.75;5041122;28;65706;-36
2022/05/12 09:49:38;;;;;;;3.72;3.03;;;;;;;34.96;52.61;100356.84;5041023;28;70207;-36
2022/05/12 09:52:36;;;;;;;3.97;2.92;;;;;;;34.81;52.36;100343.09;5039445;28;66266;-37
2022/05/12 09:55:42;;;;;;;2.88;2.55;;;;;;;35.20;52.43;100413.75;5039299;28;69308;-36
2022/05/12 09:58:35;;;;;;;2.97;2.55;;;;;;;35.08;52.27;100403.03;5039483;28;65444;-36
2022/05/12 10:02:08;;;;;;;5.32;2.38;;;;;;;34.92;52.44;100386.53;5038162;28;71262;-37
2022/05/12 10:10:26;;;;;;;4.28;3.03;;;;;;;34.47;52.76;100316.91;5039814;28;65646;-37
2022/05/12 10:13:21;;;;;;;3.13;2.83;;;;;;;35.22;52.65;100430.69;5021773;28;70410;-38
2022/05/12 10:15:55;;;;;;;3.50;2.80;;;;;;;34.72;53.08;100353.66;5020380;28;66499;-38
2022/05/12 10:18:51;;;;;;;2.95;2.75;;;;;;;35.13;52.97;100444.81;5019922;28;70435;-36
2022/05/12 10:21:32;;;;;;;3.15;2.95;;;;;;;34.80;53.25;100385.03;5019331;28;66524;-37
2022/05/12 10:24:09;;;;;;;3.08;2.75;;;;;;;35.19;53.40;100450.25;5029508;28;69877;-37
2022/05/12 10:26:46;;;;;;;3.97;3.30;;;;;;;35.20;53.51;100444.56;5035235;28;66241;-37
2022/05/12 10:29:57;;;;;;;3.60;3.30;;;;;;;35.08;53.68;100433.84;5026629;28;69998;-41
2022/05/12 10:33:08;;;;;;;13.73;6.93;;;;;;;34.86;58.22;100439.34;5026476;28;65687;-37
2022/05/12 10:36:07;;;;;;;8.13;7.40;;;;;;;34.72;60.10;100464.53;5027410;28;69517;-40
2022/05/12 10:38:46;;;;;;;7.35;6.75;;;;;;;34.08;60.83;100406.06;5031179;28;66473;-38
2022/05/12 10:41:27;;;;;;;9.95;6.97;;;;;;;34.59;61.55;100534.66;5030011;28;69860;-39
2022/05/12 10:44:09;;;;;;;11.30;6.55;;;;;;;34.46;62.37;100570.41;5029819;28;65149;-37
2022/05/12 10:46:59;;;;;;;16.17;6.53;;;;;;;34.42;63.47;100563.84;5033765;28;69919;-38
2022/05/12 10:49:57;;;;;;;11.00;6.60;;;;;;;33.95;63.79;100543.28;5040649;28;66633;-38
2022/05/12 10:52:51;;;;;;;8.65;6.15;;;;;;;34.28;63.79;100627.91;5039780;28;69597;-38
2022/05/12 10:55:38;;;;;;;8.82;5.68;;;;;;;34.23;63.91;100604.97;5040104;28;66119;-40
2022/05/12 10:58:43;;;;;;;8.32;5.68;;;;;;;33.75;64.53;100560.13;5038009;28;69963;-39
2022/05/12 11:01:30;;;;;;;7.57;5.07;;;;;;;33.61;64.27;100553.34;5042703;28;66637;-39
2022/05/12 11:04:11;;;;;;;5.18;4.57;;;;;;;33.61;64.97;100547.91;5042451;28;70000;-38
2022/05/12 11:06:49;;;;;;;11.50;6.00;;;;;;;34.00;65.06;100610.56;5041138;28;66373;-38
2022/05/12 11:10:00;;;;;;;16.83;5.78;;;;;;;33.84;65.57;100593.16;5041760;28;70403;-42
2022/05/12 11:17:13;;;;;;;6.57;4.97;;;;;;;33.58;65.73;100537.53;4964377;28;69146;-38
2022/05/12 11:20:32;;;;;;;6.00;4.15;;;;;;;33.69;65.95;100547.50;5042771;28;66923;-38
2022/05/12 11:23:45;;;;;;;4.63;4.22;;;;;;;33.66;66.38;100545.28;5026489;28;69887;-40
2022/05/12 11:27:10;;;;;;;3.97;3.58;;;;;;;33.57;66.77;100557.63;5043381;28;65630;-39
2022/05/12 11:30:15;;;;;;;8.13;3.70;;;;;;;33.08;65.35;100546.41;5025359;28;69276;-36
2022/05/12 11:33:04;;;;;;;3.65;3.35;;;;;;;33.12;65.38;100605.47;5029046;28;66627;-38
2022/05/12 11:36:06;;;;;;;5.68;4.53;;;;;;;32.47;66.44;100511.53;5035828;28;69933;-40
2022/05/12 11:40:08;;;;;;;4.28;3.83;;;;;;;32.65;65.98;100583.00;5034872;28;66951;-40
2022/05/12 11:46:15;;;;;;;4.75;4.38;;;;;;;32.37;66.97;100602.75;5057613;28;65462;-42
2022/05/12 11:49:00;;;;;;;5.05;4.55;;;;;;;32.42;67.10;100595.53;5037675;28;69761;-39
2022/05/12 11:51:53;;;;;;;5.13;4.72;;;;;;;32.38;67.20;100605.22;5022909;28;66275;-41
2022/05/12 11:54:49;;;;;;;5.57;5.07;;;;;;;32.31;67.21;100628.94;5040754;28;69224;-40
2022/05/12 11:57:38;;;;;;;9.77;4.93;;;;;;;32.01;67.45;100562.06;5041857;28;67366;-41
2022/05/12 12:03:52;;;;;;;5.63;5.13;;;;;;;32.22;68.68;100573.38;5041822;28;66900;-41
2022/05/12 12:07:15;;;;;;;5.50;4.90;;;;;;;32.41;68.37;100621.03;5033039;28;69533;-41
2022/05/12 12:10:09;;;;;;;5.90;5.40;;;;;;;32.54;67.93;100624.59;5036683;28;66905;-40
2022/05/12 12:12:42;;;;;;;5.32;4.88;;;;;;;32.55;67.71;100631.69;5039180;28;69798;-41
2022/05/12 12:15:46;;;;;;;7.90;5.45;;;;;;;32.54;66.48;100627.31;5039928;28;66344;-41
2022/05/12 12:18:22;;;;;;;6.15;5.75;;;;;;;32.43;66.41;100621.63;5034298;28;69933;-42
2022/05/12 12:21:03;;;;;;;6.82;6.32;;;;;;;32.25;66.91;100613.59;5037109;28;66579;-42
2022/05/12 12:24:19;;;;;;;6.95;6.10;;;;;;;32.05;66.80;100617.50;5029442;28;70353;-42
2022/05/12 12:27:36;;;;;;;6.68;6.18;;;;;;;32.00;66.78;100633.66;5034171;28;65706;-41
2022/05/12 12:30:29;;;;;;;;;;;;;;;31.76;67.96;100630.06;4995858;28;70320;-42
2022/05/12 12:33:17;;;;;;;5.30;5.00;;;;;;;32.31;65.49;100620.81;5052080;28;66638;-43
2022/05/12 12:36:05;;;;;;;4.72;4.40;;;;;;;32.51;65.26;100620.47;5020577;28;69808;-43
2022/05/12 12:39:27;;;;;;;4.65;4.35;;;;;;;32.61;64.98;100622.59;5042114;28;67110;-40